Time;durP1;ratioP1;P1;durP2;ratioP2;P2;SDS_P1;SDS_P2;PMS_P1;PMS_P2;Temp;Humidity;BMP_temperature;BMP_pressure;BME280_temperature;BME280_humidity;BME280_pressure;Samples;Min_cycle;Max_cycle;Signal;HPM_P1;HPM_P2
2023/06/06 00:01:36;;;;;;;464.17;440.80;;;16.00;91.50;;;;;;5052186;28;20194;-70
2023/06/06 00:04:04;;;;;;;473.63;449.77;;;16.00;91.60;;;;;;5053533;28;20178;-71
2023/06/06 00:06:35;;;;;;;478.03;453.57;;;16.10;91.50;;;;;;5051988;28;20248;-72
2023/06/06 00:09:04;;;;;;;472.60;448.83;;;16.00;91.50;;;;;;5053576;28;20183;-70
2023/06/06 00:11:35;;;;;;;471.97;448.07;;;16.00;91.60;;;;;;5050963;28;20712;-71
2023/06/06 00:14:04;;;;;;;474.90;450.80;;;16.00;91.50;;;;;;5054033;28;20244;-68
2023/06/06 00:16:32;;;;;;;464.73;441.43;;;16.10;91.60;;;;;;5052618;28;20180;-74
2023/06/06 00:19:00;;;;;;;445.03;422.90;;;16.10;91.50;;;;;;5051740;28;20184;-69
2023/06/06 00:21:32;;;;;;;432.10;410.97;;;16.10;91.30;;;;;;5053249;28;20581;-70
2023/06/06 00:24:00;;;;;;;440.37;418.63;;;16.10;91.40;;;;;;5052119;28;20181;-70
2023/06/06 00:26:27;;;;;;;408.80;388.83;;;16.20;91.30;;;;;;5052161;28;20309;-71
2023/06/06 00:28:55;;;;;;;380.60;362.30;;;16.20;91.00;;;;;;5052096;28;20268;-74
2023/06/06 00:31:22;;;;;;;379.33;361.20;;;16.30;90.60;;;;;;5050576;28;20231;-75
2023/06/06 00:33:49;;;;;;;370.67;352.87;;;16.40;90.70;;;;;;5047278;28;20215;-69
2023/06/06 00:36:17;;;;;;;337.67;321.30;;;16.50;90.40;;;;;;5052404;28;20195;-75
2023/06/06 00:38:47;;;;;;;340.00;323.90;;;16.60;90.10;;;;;;5052064;28;20205;-68
2023/06/06 00:41:17;;;;;;;332.87;317.03;;;16.70;90.00;;;;;;5049567;28;20199;-70
2023/06/06 00:43:45;;;;;;;248.33;236.80;;;16.70;89.80;;;;;;5052524;28;20180;-66
2023/06/06 00:46:13;;;;;;;239.57;228.17;;;16.70;88.70;;;;;;5049553;28;20233;-68
2023/06/06 00:48:41;;;;;;;228.67;217.67;;;16.70;88.50;;;;;;5053376;28;20266;-70
2023/06/06 00:51:10;;;;;;;212.77;202.43;;;16.80;88.70;;;;;;5049544;28;20524;-67
2023/06/06 00:53:38;;;;;;;198.50;188.83;;;17.00;88.40;;;;;;5049712;28;20191;-65
2023/06/06 00:56:06;;;;;;;164.53;156.33;;;17.20;87.90;;;;;;5044396;28;20645;-65
2023/06/06 00:58:35;;;;;;;161.37;152.90;;;17.30;87.40;;;;;;5045852;28;20184;-65
2023/06/06 01:01:04;;;;;;;163.93;155.73;;;17.40;87.00;;;;;;5053248;28;20641;-66
2023/06/06 01:03:32;;;;;;;133.13;126.30;;;17.40;87.20;;;;;;5053445;28;20666;-69
2023/06/06 01:05:59;;;;;;;107.43;102.03;;;17.40;86.90;;;;;;5045065;28;20234;-68
2023/06/06 01:08:26;;;;;;;85.67;81.17;;;17.50;86.50;;;;;;5051028;28;20176;-69
2023/06/06 01:11:06;;;;;;;83.37;79.10;;;17.40;85.20;;;;;;5053258;28;20535;-67
2023/06/06 01:13:46;;;;;;;80.20;76.00;;;17.40;86.10;;;;;;5048980;28;20267;-65
2023/06/06 01:16:18;;;;;;;81.23;77.03;;;17.50;86.40;;;;;;5048508;28;20218;-65
2023/06/06 01:18:48;;;;;;;87.43;82.97;;;17.40;86.30;;;;;;5051924;28;20719;-65
2023/06/06 01:21:16;;;;;;;91.43;86.40;;;17.30;86.60;;;;;;5046261;28;20243;-66
2023/06/06 01:23:45;;;;;;;98.63;93.13;;;17.20;87.10;;;;;;5050804;28;20743;-66
2023/06/06 01:26:12;;;;;;;109.93;104.43;;;17.10;87.10;;;;;;5045317;28;20220;-66
2023/06/06 01:28:40;;;;;;;119.87;113.57;;;17.30;88.00;;;;;;5049981;28;20227;-65
2023/06/06 01:31:15;;;;;;;124.87;118.57;;;17.30;87.70;;;;;;5051795;28;20223;-68
2023/06/06 01:33:54;;;;;;;126.00;119.70;;;17.80;88.20;;;;;;5048082;28;20176;-65
2023/06/06 01:36:25;;;;;;;105.30;99.90;;;17.80;87.40;;;;;;5050267;28;20270;-71
2023/06/06 01:39:02;;;;;;;73.33;68.93;;;17.90;86.50;;;;;;5050575;28;20639;-67
2023/06/06 01:41:31;;;;;;;75.27;71.30;;;17.90;86.00;;;;;;5045778;28;20354;-64
2023/06/06 01:43:59;;;;;;;55.23;52.30;;;18.10;86.40;;;;;;5036212;28;20180;-66
2023/06/06 01:46:28;;;;;;;50.87;47.83;;;18.10;85.40;;;;;;5031160;28;20306;-65
2023/06/06 01:48:57;;;;;;;34.87;33.07;;;18.20;85.70;;;;;;5053754;28;20187;-64
2023/06/06 01:51:28;;;;;;;26.30;24.73;;;18.10;84.20;;;;;;5052499;28;20215;-65
2023/06/06 01:53:59;;;;;;;22.83;21.50;;;17.70;84.40;;;;;;5051665;28;20193;-64
2023/06/06 01:56:28;;;;;;;19.97;18.47;;;17.70;84.80;;;;;;5051050;28;20259;-64
2023/06/06 01:58:55;;;;;;;19.57;18.27;;;17.80;84.40;;;;;;5051786;28;20203;-64
2023/06/06 02:01:22;;;;;;;17.67;16.57;;;17.90;83.70;;;;;;5051070;28;20233;-64
2023/06/06 02:03:49;;;;;;;17.97;16.73;;;18.00;83.00;;;;;;5050525;28;20291;-66
2023/06/06 02:06:17;;;;;;;12.17;11.40;;;18.30;82.50;;;;;;5052517;28;21580;-65
2023/06/06 02:08:44;;;;;;;10.17;9.27;;;18.50;81.40;;;;;;5052047;28;20176;-65
2023/06/06 02:11:12;;;;;;;7.20;6.60;;;18.70;80.50;;;;;;5051228;28;20198;-66
2023/06/06 02:13:39;;;;;;;6.77;6.23;;;18.40;81.00;;;;;;5051915;28;20179;-66
2023/06/06 02:16:07;;;;;;;6.00;5.37;;;18.20;82.10;;;;;;5052780;28;20592;-65
2023/06/06 02:18:34;;;;;;;5.60;5.20;;;18.30;81.80;;;;;;5051697;28;20267;-68
2023/06/06 02:21:01;;;;;;;5.33;4.60;;;18.50;80.50;;;;;;5051966;28;20192;-67
2023/06/06 02:23:29;;;;;;;9.03;3.37;;;18.70;81.00;;;;;;5051807;28;20518;-65
2023/06/06 02:25:56;;;;;;;4.57;3.43;;;18.60;78.60;;;;;;5051929;28;20212;-68
2023/06/06 02:28:23;;;;;;;3.20;3.00;;;18.50;79.50;;;;;;5049580;28;20182;-66
2023/06/06 02:30:51;;;;;;;3.40;2.83;;;18.30;79.60;;;;;;5051587;28;20233;-65
2023/06/06 02:33:19;;;;;;;4.17;3.47;;;18.00;80.80;;;;;;5050750;28;20203;-65
2023/06/06 02:35:47;;;;;;;5.60;4.00;;;18.20;81.40;;;;;;5050533;28;20176;-64
2023/06/06 02:38:14;;;;;;;5.17;4.20;;;18.30;80.70;;;;;;5052237;28;20198;-65
2023/06/06 02:40:41;;;;;;;4.67;4.37;;;18.10;81.10;;;;;;5050294;28;20210;-64
2023/06/06 02:43:09;;;;;;;4.97;4.57;;;18.10;80.90;;;;;;5049481;28;20236;-65
2023/06/06 02:45:36;;;;;;;9.10;5.70;;;18.30;80.50;;;;;;5050985;28;20223;-65
2023/06/06 02:48:03;;;;;;;6.77;5.53;;;18.40;80.80;;;;;;5049071;28;20184;-65
2023/06/06 02:50:31;;;;;;;5.50;4.77;;;18.50;80.90;;;;;;5050238;28;20262;-66
2023/06/06 02:53:03;;;;;;;7.43;4.33;;;18.70;79.80;;;;;;5048994;28;20259;-65
2023/06/06 02:55:30;;;;;;;4.63;4.23;;;18.80;79.40;;;;;;5048826;28;20245;-66
2023/06/06 02:57:58;;;;;;;4.53;4.10;;;18.90;78.80;;;;;;5048750;28;20191;-66
2023/06/06 03:00:25;;;;;;;6.80;3.30;;;19.00;79.30;;;;;;5050922;28;20212;-65
2023/06/06 03:02:52;;;;;;;7.57;3.30;;;19.20;79.00;;;;;;5049429;28;20176;-65
2023/06/06 03:05:22;;;;;;;3.27;2.60;;;19.20;78.40;;;;;;5050931;28;20261;-65
2023/06/06 03:07:49;;;;;;;5.40;2.80;;;19.20;78.30;;;;;;5044569;28;20262;-67
2023/06/06 03:10:17;;;;;;;4.57;2.50;;;19.30;78.00;;;;;;5049875;28;20184;-65
2023/06/06 03:12:44;;;;;;;3.90;2.53;;;19.60;76.60;;;;;;5048283;28;20196;-65
2023/06/06 03:15:11;;;;;;;6.30;2.67;;;19.60;76.10;;;;;;5049347;28;20180;-67
2023/06/06 03:17:40;;;;;;;3.43;2.20;;;19.70;77.60;;;;;;5049536;28;20661;-67
2023/06/06 03:20:07;;;;;;;5.97;1.77;;;19.80;75.90;;;;;;5050069;28;20244;-66
2023/06/06 03:22:35;;;;;;;5.40;2.03;;;19.80;75.50;;;;;;5048043;28;20202;-65
2023/06/06 03:25:02;;;;;;;6.37;1.80;;;20.00;74.90;;;;;;5050477;28;20215;-68
2023/06/06 03:27:30;;;;;;;2.57;1.37;;;20.30;75.10;;;;;;5033188;28;20206;-67
2023/06/06 03:29:58;;;;;;;2.17;1.13;;;20.70;73.50;;;;;;5051937;28;20172;-67
2023/06/06 03:32:25;;;;;;;2.93;1.00;;;21.00;72.70;;;;;;5052562;28;20235;-66
2023/06/06 03:34:53;;;;;;;6.83;1.80;;;20.80;70.40;;;;;;5052180;28;20187;-68
2023/06/06 03:37:20;;;;;;;1.90;0.87;;;20.80;70.80;;;;;;5054053;28;20615;-70
2023/06/06 03:39:47;;;;;;;3.30;1.23;;;20.90;70.90;;;;;;5052023;28;20179;-70
2023/06/06 03:42:14;;;;;;;1.93;1.10;;;21.40;69.00;;;;;;5050677;28;20187;-71
2023/06/06 03:44:43;;;;;;;5.57;0.87;;;21.80;67.70;;;;;;5055380;28;20543;-71
2023/06/06 03:47:10;;;;;;;5.97;1.30;;;21.60;68.10;;;;;;5053397;28;20279;-73
2023/06/06 03:49:37;;;;;;;3.13;1.20;;;22.00;65.80;;;;;;5053600;28;20922;-70
2023/06/06 03:52:05;;;;;;;3.30;1.10;;;22.00;67.80;;;;;;5054514;28;20187;-75
2023/06/06 03:54:36;;;;;;;8.73;1.37;;;22.30;65.00;;;;;;5055383;28;20176;-74
2023/06/06 03:57:07;;;;;;;4.57;1.30;;;22.00;65.10;;;;;;5054563;28;20429;-75
2023/06/06 03:59:34;;;;;;;4.73;1.20;;;21.50;67.80;;;;;;5050897;28;20321;-72
2023/06/06 04:02:02;;;;;;;5.33;1.23;;;22.00;66.10;;;;;;5054984;28;20703;-66
2023/06/06 04:04:30;;;;;;;4.73;1.23;;;22.50;65.30;;;;;;5054289;28;20677;-69
2023/06/06 04:06:58;;;;;;;3.57;1.20;;;22.70;62.20;;;;;;5054660;28;20183;-72
2023/06/06 04:09:26;;;;;;;4.63;1.37;;;22.30;63.20;;;;;;5054646;28;20234;-70
2023/06/06 04:11:53;;;;;;;7.53;1.40;;;21.90;64.40;;;;;;5054659;28;20264;-70
2023/06/06 04:14:20;;;;;;;2.83;0.93;;;21.70;65.50;;;;;;5050287;28;20183;-68
2023/06/06 04:16:48;;;;;;;4.43;1.37;;;21.30;65.70;;;;;;5054778;28;20176;-71
2023/06/06 04:19:15;;;;;;;3.30;1.07;;;20.80;68.10;;;;;;5050612;28;20196;-67
2023/06/06 04:21:42;;;;;;;7.00;1.20;;;20.30;67.90;;;;;;5053945;28;20263;-70
2023/06/06 04:24:11;;;;;;;3.53;1.30;;;20.10;69.00;;;;;;5054657;28;20611;-67
2023/06/06 04:26:38;;;;;;;3.33;0.90;;;20.80;65.90;;;;;;5053764;28;20219;-69
2023/06/06 04:29:05;;;;;;;2.83;0.90;;;21.30;62.60;;;;;;5054450;28;20207;-69
2023/06/06 04:31:34;;;;;;;1.63;0.90;;;21.30;62.40;;;;;;5053539;28;20278;-74
2023/06/06 04:34:03;;;;;;;2.73;0.70;;;21.60;61.80;;;;;;5054356;28;20566;-74
2023/06/06 04:36:33;;;;;;;3.87;0.70;;;21.80;61.30;;;;;;5053839;28;20180;-73
2023/06/06 04:39:00;;;;;;;2.97;1.10;;;21.30;61.40;;;;;;5053813;28;20227;-70
2023/06/06 04:41:31;;;;;;;5.53;1.03;;;21.20;62.30;;;;;;5052613;28;20175;-70
2023/06/06 04:44:04;;;;;;;2.00;0.80;;;21.50;62.00;;;;;;5052846;28;20209;-68
2023/06/06 04:46:32;;;;;;;3.27;0.80;;;22.10;60.50;;;;;;5052811;28;20308;-68
2023/06/06 04:48:59;;;;;;;1.43;0.90;;;22.00;61.60;;;;;;5053828;28;20180;-68
2023/06/06 04:51:32;;;;;;;4.00;1.10;;;22.40;59.70;;;;;;5052890;28;20184;-68
2023/06/06 04:54:01;;;;;;;4.10;1.00;;;22.40;60.20;;;;;;5053458;28;20180;-70
2023/06/06 04:56:29;;;;;;;3.80;1.20;;;22.50;59.50;;;;;;5051640;28;20198;-71
2023/06/06 04:59:06;;;;;;;5.87;1.10;;;22.30;60.20;;;;;;5053120;28;20191;-68
2023/06/06 05:01:41;;;;;;;3.83;1.00;;;22.60;59.80;;;;;;5051406;28;20198;-71
2023/06/06 05:04:08;;;;;;;4.07;1.10;;;22.60;59.90;;;;;;5052827;28;20213;-68
2023/06/06 05:06:35;;;;;;;2.83;1.00;;;22.90;59.90;;;;;;5052258;28;20305;-65
2023/06/06 05:09:04;;;;;;;3.40;0.80;;;22.30;61.80;;;;;;5053001;28;20655;-67
2023/06/06 05:11:31;;;;;;;4.43;1.10;;;22.10;63.50;;;;;;5052063;28;20189;-67
2023/06/06 05:13:59;;;;;;;4.77;1.30;;;22.60;60.50;;;;;;5053168;28;20182;-73
2023/06/06 05:16:26;;;;;;;6.97;1.60;;;22.80;59.80;;;;;;5052921;28;20518;-74
2023/06/06 05:18:54;;;;;;;2.40;1.00;;;22.90;59.50;;;;;;5053564;28;20652;-74
2023/06/06 05:21:22;;;;;;;3.57;1.47;;;22.80;60.80;;;;;;5048547;28;20179;-73
2023/06/06 05:23:49;;;;;;;3.17;1.10;;;22.30;61.60;;;;;;5046094;28;20595;-72
2023/06/06 05:26:17;;;;;;;2.10;0.77;;;21.80;62.70;;;;;;5048148;28;20249;-72
2023/06/06 05:28:45;;;;;;;4.90;1.20;;;22.00;62.50;;;;;;5042672;28;20195;-72
2023/06/06 05:31:16;;;;;;;4.13;0.97;;;22.20;62.30;;;;;;5052362;28;20235;-72
2023/06/06 05:33:44;;;;;;;3.23;0.80;;;22.00;62.70;;;;;;5052804;28;20180;-72
2023/06/06 05:36:11;;;;;;;2.97;0.97;;;22.10;62.60;;;;;;5042200;28;20176;-70
2023/06/06 05:38:39;;;;;;;5.33;1.23;;;21.80;64.70;;;;;;5049434;28;20639;-73
2023/06/06 05:41:06;;;;;;;1.70;1.00;;;20.90;66.20;;;;;;5050018;28;20263;-66
2023/06/06 05:43:34;;;;;;;3.07;0.93;;;20.80;69.30;;;;;;5052013;28;20254;-67
2023/06/06 05:46:04;;;;;;;3.37;1.00;;;20.30;70.00;;;;;;5051478;28;20215;-70
2023/06/06 05:48:33;;;;;;;4.40;1.30;;;20.10;69.80;;;;;;5051686;28;20230;-74
2023/06/06 05:51:00;;;;;;;2.07;1.00;;;19.60;71.40;;;;;;5050510;28;20206;-71
2023/06/06 05:53:28;;;;;;;4.07;1.07;;;19.20;72.90;;;;;;5034887;28;20188;-73
2023/06/06 05:55:55;;;;;;;5.60;1.30;;;18.90;74.10;;;;;;5052007;28;20664;-76
2023/06/06 05:58:23;;;;;;;3.90;1.37;;;18.80;75.00;;;;;;5042808;28;20187;-71
2023/06/06 06:00:50;;;;;;;2.13;1.03;;;18.70;76.00;;;;;;5052087;28;20297;-67
2023/06/06 06:03:18;;;;;;;3.87;1.17;;;18.50;76.30;;;;;;5049619;28;20287;-67
2023/06/06 06:05:45;;;;;;;4.60;1.10;;;18.30;76.70;;;;;;5052116;28;20272;-67
2023/06/06 06:08:12;;;;;;;3.10;1.30;;;18.30;77.00;;;;;;5049433;28;20184;-67
2023/06/06 06:10:40;;;;;;;4.40;1.30;;;18.20;77.60;;;;;;5048767;28;20179;-69
2023/06/06 06:13:07;;;;;;;5.60;1.20;;;18.20;77.90;;;;;;5047906;28;20681;-69
2023/06/06 06:15:35;;;;;;;5.13;1.00;;;18.20;78.10;;;;;;5048835;28;20199;-69
2023/06/06 06:18:04;;;;;;;4.20;0.83;;;18.10;78.60;;;;;;5052002;28;20188;-68
2023/06/06 06:20:31;;;;;;;5.30;1.30;;;18.10;79.00;;;;;;5050659;28;20211;-75
2023/06/06 06:22:59;;;;;;;4.13;1.20;;;18.00;79.20;;;;;;5050317;28;20180;-74
2023/06/06 06:25:26;;;;;;;10.63;1.40;;;17.90;79.50;;;;;;5050770;28;20689;-70
2023/06/06 06:27:53;;;;;;;2.73;1.23;;;17.80;79.80;;;;;;5048529;28;20551;-75
2023/06/06 06:30:21;;;;;;;4.60;1.47;;;17.90;80.20;;;;;;5049369;28;20180;-69
2023/06/06 06:32:49;;;;;;;4.43;1.20;;;17.80;80.50;;;;;;5049702;28;20180;-69
2023/06/06 06:35:16;;;;;;;3.90;1.27;;;17.80;80.50;;;;;;5050619;28;20191;-68
2023/06/06 06:37:43;;;;;;;5.83;1.50;;;17.80;81.20;;;;;;5046374;28;20180;-68
2023/06/06 06:40:11;;;;;;;6.33;1.50;;;17.70;81.10;;;;;;5043693;28;20183;-73
2023/06/06 06:42:40;;;;;;;6.13;1.90;;;17.80;81.40;;;;;;5048541;28;20187;-70
2023/06/06 06:45:10;;;;;;;3.70;1.33;;;17.70;81.40;;;;;;5049729;28;20697;-67
2023/06/06 06:47:37;;;;;;;4.97;1.53;;;17.60;81.80;;;;;;5050307;28;20296;-73
2023/06/06 06:50:06;;;;;;;10.20;2.77;;;17.60;82.30;;;;;;5051570;28;20206;-67
2023/06/06 06:52:35;;;;;;;8.23;2.23;;;17.50;82.40;;;;;;5050541;28;20196;-72
2023/06/06 06:55:04;;;;;;;6.67;2.53;;;17.40;82.30;;;;;;5050277;28;20229;-68
2023/06/06 06:57:33;;;;;;;4.70;2.03;;;17.40;82.70;;;;;;5049992;28;20190;-67
2023/06/06 07:00:18;;;;;;;6.43;1.97;;;17.40;83.10;;;;;;5050773;28;20670;-67
2023/06/06 07:02:46;;;;;;;6.50;2.07;;;17.30;82.90;;;;;;5048056;28;20183;-67
2023/06/06 07:05:17;;;;;;;7.17;2.30;;;17.30;83.30;;;;;;5051643;28;20227;-67
2023/06/06 07:07:49;;;;;;;5.57;1.90;;;17.30;83.50;;;;;;5047740;28;20233;-67
2023/06/06 07:10:18;;;;;;;4.57;2.10;;;17.20;83.50;;;;;;5051082;28;20188;-67
2023/06/06 07:12:50;;;;;;;5.37;2.13;;;17.20;83.70;;;;;;5049454;28;20175;-67
2023/06/06 07:15:18;;;;;;;4.73;2.13;;;17.20;83.60;;;;;;5050197;28;20183;-67
2023/06/06 07:17:51;;;;;;;6.97;2.30;;;17.20;83.70;;;;;;5050700;28;20672;-68
2023/06/06 07:20:23;;;;;;;4.97;2.10;;;17.20;83.70;;;;;;5051194;28;20194;-68
2023/06/06 07:22:56;;;;;;;7.10;2.60;;;17.20;84.00;;;;;;5051251;28;20245;-67
2023/06/06 07:25:23;;;;;;;7.87;2.53;;;17.30;84.00;;;;;;5049984;28;20556;-68
2023/06/06 07:27:50;;;;;;;4.70;2.20;;;17.20;84.10;;;;;;5049605;28;20195;-70
2023/06/06 07:30:18;;;;;;;6.30;2.40;;;17.20;84.00;;;;;;5050374;28;20177;-70
2023/06/06 07:32:47;;;;;;;5.13;2.27;;;17.20;84.20;;;;;;5050057;28;20224;-68
2023/06/06 07:35:21;;;;;;;6.53;2.00;;;17.10;84.20;;;;;;5048653;28;20189;-69
2023/06/06 07:37:49;;;;;;;7.30;3.40;;;17.10;84.20;;;;;;5048401;28;20176;-69
2023/06/06 07:40:16;;;;;;;5.40;2.67;;;17.00;84.50;;;;;;5043357;28;20200;-70
2023/06/06 07:42:44;;;;;;;10.13;2.53;;;17.00;84.60;;;;;;5046988;28;20202;-67
2023/06/06 07:45:12;;;;;;;9.77;2.83;;;17.00;85.00;;;;;;5047702;28;20579;-68
2023/06/06 07:47:40;;;;;;;6.70;2.43;;;17.00;85.00;;;;;;5047630;28;20205;-67
2023/06/06 07:50:08;;;;;;;7.37;2.60;;;17.00;85.40;;;;;;5052407;28;20182;-69
2023/06/06 07:52:36;;;;;;;6.87;2.40;;;17.00;85.40;;;;;;5050520;28;20749;-67
2023/06/06 07:55:05;;;;;;;8.50;2.80;;;17.00;85.30;;;;;;5043469;28;20180;-67
2023/06/06 07:57:33;;;;;;;6.60;2.90;;;17.00;85.50;;;;;;5048766;28;22165;-74
2023/06/06 08:00:03;;;;;;;5.03;2.57;;;17.00;85.50;;;;;;5043806;28;20230;-71
2023/06/06 08:02:30;;;;;;;5.97;2.70;;;17.00;85.50;;;;;;5050022;28;20185;-71
2023/06/06 08:04:59;;;;;;;8.20;3.20;;;16.90;85.50;;;;;;5044494;28;20808;-74
2023/06/06 08:07:26;;;;;;;5.60;2.87;;;16.80;85.60;;;;;;5048661;28;20178;-67
2023/06/06 08:09:54;;;;;;;5.43;2.93;;;16.80;85.70;;;;;;5044638;28;20223;-67
2023/06/06 08:12:21;;;;;;;4.93;3.10;;;16.80;85.80;;;;;;5049864;28;20183;-72
2023/06/06 08:14:48;;;;;;;6.70;3.23;;;16.70;86.00;;;;;;5047876;28;20279;-69
2023/06/06 08:17:16;;;;;;;3.83;3.10;;;16.70;86.00;;;;;;5052044;28;20183;-70
2023/06/06 08:19:43;;;;;;;6.03;2.90;;;16.70;86.30;;;;;;5045260;28;20271;-67
2023/06/06 08:22:10;;;;;;;7.40;3.30;;;16.70;86.40;;;;;;5052751;28;20190;-68
2023/06/06 08:24:39;;;;;;;6.60;3.57;;;16.60;86.50;;;;;;5049099;28;20209;-69
2023/06/06 08:27:07;;;;;;;9.03;3.63;;;16.60;86.60;;;;;;5049393;28;20309;-66
2023/06/06 08:29:35;;;;;;;9.60;3.77;;;16.60;86.60;;;;;;5044148;28;20183;-68
2023/06/06 08:32:04;;;;;;;6.93;3.73;;;16.50;86.80;;;;;;5044003;28;20309;-69
2023/06/06 08:34:35;;;;;;;10.43;5.43;;;16.50;87.10;;;;;;5050700;28;20183;-68
2023/06/06 08:37:03;;;;;;;7.83;4.20;;;16.50;87.30;;;;;;5053644;28;20221;-68
2023/06/06 08:39:30;;;;;;;7.43;4.73;;;16.50;87.20;;;;;;5051259;28;20175;-70
2023/06/06 08:41:57;;;;;;;6.53;4.17;;;16.40;87.40;;;;;;5047172;28;20181;-72
2023/06/06 08:44:25;;;;;;;6.73;4.70;;;16.40;87.40;;;;;;5051859;28;20576;-71
2023/06/06 08:46:57;;;;;;;10.57;4.50;;;16.50;87.40;;;;;;5050710;28;20712;-69
2023/06/06 08:49:27;;;;;;;10.00;5.13;;;16.50;87.40;;;;;;5051606;28;20195;-71
2023/06/06 08:51:56;;;;;;;8.80;5.60;;;16.50;87.40;;;;;;5052844;28;20205;-70
2023/06/06 08:54:26;;;;;;;8.43;6.33;;;16.50;87.40;;;;;;5052742;28;20187;-68
2023/06/06 08:56:54;;;;;;;9.57;8.03;;;16.70;87.50;;;;;;5052600;28;20184;-69
2023/06/06 08:59:21;;;;;;;11.07;8.00;;;16.70;87.50;;;;;;5050022;28;20184;-67
2023/06/06 09:01:52;;;;;;;10.70;7.53;;;16.70;87.50;;;;;;5049102;28;20179;-69
2023/06/06 09:04:20;;;;;;;7.97;5.70;;;16.70;87.10;;;;;;5052501;28;20178;-69
2023/06/06 09:06:50;;;;;;;10.33;5.07;;;16.80;87.00;;;;;;5052821;28;20204;-68
2023/06/06 09:09:20;;;;;;;9.13;5.03;;;16.80;86.80;;;;;;5048956;28;20200;-67
2023/06/06 09:11:47;;;;;;;9.87;6.83;;;16.80;86.70;;;;;;5052292;28;20183;-66
2023/06/06 09:14:15;;;;;;;13.57;9.57;;;16.80;86.80;;;;;;5053423;28;20701;-68
2023/06/06 09:16:42;;;;;;;11.50;9.70;;;16.80;86.70;;;;;;5050684;28;20202;-67
2023/06/06 09:19:10;;;;;;;12.90;11.20;;;16.80;86.40;;;;;;5049748;28;20184;-67
2023/06/06 09:21:37;;;;;;;16.43;14.27;;;16.80;86.30;;;;;;5052741;28;20542;-67
2023/06/06 09:24:05;;;;;;;15.37;13.90;;;16.80;86.30;;;;;;5051500;28;20203;-69
2023/06/06 09:26:34;;;;;;;15.87;14.67;;;16.80;86.50;;;;;;5046947;28;20265;-71
2023/06/06 09:29:08;;;;;;;17.53;15.97;;;16.70;86.20;;;;;;5051283;28;20343;-68
2023/06/06 09:31:40;;;;;;;19.50;17.97;;;16.70;86.30;;;;;;5048761;28;20296;-68
2023/06/06 09:34:11;;;;;;;21.33;19.23;;;16.60;86.50;;;;;;5049843;28;20191;-67
2023/06/06 09:36:45;;;;;;;24.73;22.70;;;16.60;86.50;;;;;;5051631;28;20698;-68
2023/06/06 09:39:14;;;;;;;27.53;25.33;;;16.50;86.70;;;;;;5049264;28;22128;-67
2023/06/06 09:41:48;;;;;;;27.80;25.97;;;16.50;87.10;;;;;;5047756;28;20646;-66
2023/06/06 09:44:24;;;;;;;32.30;29.70;;;16.40;87.10;;;;;;5047568;28;20230;-68
2023/06/06 09:46:59;;;;;;;31.20;28.70;;;16.40;87.40;;;;;;5052200;28;20219;-67
2023/06/06 09:49:31;;;;;;;40.63;37.93;;;16.30;87.50;;;;;;5049446;28;20213;-68
2023/06/06 09:51:59;;;;;;;38.23;35.73;;;16.30;87.60;;;;;;5048623;28;20215;-66
2023/06/06 09:54:26;;;;;;;39.70;36.97;;;16.30;87.80;;;;;;5050657;28;20191;-66
2023/06/06 09:56:56;;;;;;;39.33;36.57;;;16.30;88.00;;;;;;5051050;28;20673;-66
2023/06/06 09:59:26;;;;;;;44.70;41.50;;;16.30;88.00;;;;;;5046988;28;20198;-66
2023/06/06 10:02:06;;;;;;;46.00;42.80;;;16.30;88.30;;;;;;5050011;28;20177;-66
2023/06/06 10:04:35;;;;;;;44.07;40.87;;;16.30;88.20;;;;;;5052071;28;20658;-67
2023/06/06 10:07:04;;;;;;;44.73;41.63;;;16.30;88.30;;;;;;5050560;28;20210;-67
2023/06/06 10:09:33;;;;;;;47.50;44.07;;;16.30;88.10;;;;;;5050822;28;20191;-67
2023/06/06 10:12:01;;;;;;;51.53;48.13;;;16.30;88.20;;;;;;5045497;28;20191;-65
2023/06/06 10:14:30;;;;;;;51.73;48.23;;;16.30;88.30;;;;;;5047547;28;20177;-66
2023/06/06 10:16:58;;;;;;;50.27;46.93;;;16.20;88.30;;;;;;5050750;28;20187;-66
2023/06/06 10:19:26;;;;;;;47.90;45.07;;;16.20;88.40;;;;;;5051442;28;20238;-66
2023/06/06 10:21:55;;;;;;;49.63;46.43;;;16.20;88.50;;;;;;5050721;28;20271;-66
2023/06/06 10:24:23;;;;;;;56.53;53.03;;;16.20;88.60;;;;;;5051408;28;20319;-67
2023/06/06 10:27:03;;;;;;;50.97;47.47;;;16.20;88.60;;;;;;5033414;28;20636;-66
2023/06/06 10:29:49;;;;;;;61.23;57.60;;;16.20;88.80;;;;;;5051896;28;20171;-65
2023/06/06 10:32:30;;;;;;;60.00;56.27;;;16.20;88.90;;;;;;5048308;28;20321;-64
2023/06/06 10:34:59;;;;;;;76.07;71.73;;;16.20;88.90;;;;;;5047326;28;20214;-66
2023/06/06 10:37:26;;;;;;;69.13;65.00;;;16.20;88.90;;;;;;5050516;28;20183;-67
2023/06/06 10:40:04;;;;;;;75.80;71.40;;;16.10;88.90;;;;;;5048620;28;20260;-67
2023/06/06 10:42:40;;;;;;;88.97;83.47;;;16.10;88.80;;;;;;5048582;28;20276;-71
2023/06/06 10:45:08;;;;;;;89.03;83.63;;;16.00;89.00;;;;;;5049310;28;20639;-69
2023/06/06 10:47:40;;;;;;;80.33;75.37;;;16.00;89.10;;;;;;5051126;28;20207;-69
2023/06/06 10:50:13;;;;;;;83.97;78.97;;;15.90;89.10;;;;;;5049567;28;20232;-66
2023/06/06 10:53:09;;;;;;;91.77;85.73;;;15.80;89.10;;;;;;5047720;28;20178;-66
2023/06/06 10:55:42;;;;;;;100.27;94.57;;;15.80;89.20;;;;;;5051096;28;20201;-66
2023/06/06 10:58:20;;;;;;;99.53;93.67;;;15.80;89.50;;;;;;5049603;28;20183;-66
2023/06/06 11:00:56;;;;;;;99.57;93.83;;;15.80;89.50;;;;;;5048038;28;20828;-66
2023/06/06 11:03:38;;;;;;;108.60;102.70;;;15.80;89.60;;;;;;5029315;28;20245;-66
2023/06/06 11:06:09;;;;;;;115.17;108.83;;;15.80;89.80;;;;;;5046711;28;20217;-67
2023/06/06 11:08:58;;;;;;;118.80;112.10;;;15.70;89.60;;;;;;5047315;28;20195;-66
2023/06/06 11:11:29;;;;;;;141.73;133.57;;;15.70;89.70;;;;;;5048070;28;20662;-66
2023/06/06 11:14:04;;;;;;;144.93;137.40;;;15.70;89.80;;;;;;5047264;28;20239;-67
2023/06/06 11:16:41;;;;;;;152.00;144.20;;;15.80;89.90;;;;;;5051013;28;20530;-66
2023/06/06 11:19:11;;;;;;;150.03;142.13;;;15.80;90.00;;;;;;5049323;28;20194;-67
2023/06/06 11:21:50;;;;;;;152.00;144.17;;;15.80;90.00;;;;;;5051800;28;20185;-73
2023/06/06 11:24:19;;;;;;;95.43;90.20;;;15.80;90.00;;;;;;5051067;28;20278;-66
2023/06/06 11:26:47;;;;;;;92.47;87.47;;;15.80;89.90;;;;;;5049032;28;20225;-65
2023/06/06 11:29:15;;;;;;;97.40;92.03;;;15.80;89.80;;;;;;5050924;28;20180;-71
2023/06/06 11:31:43;;;;;;;154.33;146.23;;;15.70;89.80;;;;;;5047322;28;20252;-67
2023/06/06 11:34:13;;;;;;;156.43;148.13;;;15.70;89.80;;;;;;5050837;28;20265;-72
2023/06/06 11:36:44;;;;;;;159.07;150.40;;;15.60;89.80;;;;;;5049730;28;20197;-67
2023/06/06 11:39:12;;;;;;;176.13;167.13;;;15.60;90.00;;;;;;5047014;28;20182;-67
2023/06/06 11:41:48;;;;;;;173.10;164.23;;;15.50;90.00;;;;;;5047876;28;20196;-66
2023/06/06 11:44:17;;;;;;;175.33;166.57;;;15.40;90.00;;;;;;5050774;28;20181;-69
2023/06/06 11:46:51;;;;;;;201.00;190.93;;;15.30;90.10;;;;;;5049430;28;20214;-71
2023/06/06 11:49:21;;;;;;;201.53;191.13;;;15.30;90.20;;;;;;5048265;28;20235;-67
2023/06/06 11:52:06;;;;;;;176.37;167.40;;;15.30;90.40;;;;;;5050987;28;20539;-68
2023/06/06 11:54:33;;;;;;;193.57;183.83;;;15.30;90.50;;;;;;5053627;28;20180;-66
2023/06/06 11:57:03;;;;;;;211.67;200.73;;;15.20;90.30;;;;;;5054162;28;20235;-66
2023/06/06 11:59:31;;;;;;;238.83;227.03;;;15.20;90.60;;;;;;5046888;28;20178;-67
2023/06/06 12:01:58;;;;;;;218.63;207.77;;;15.20;90.70;;;;;;5051833;28;20903;-67
2023/06/06 12:11:29;;;;;;;271.57;258.67;;;15.20;91.10;;;;;;5048476;28;20646;-67
2023/06/06 12:13:56;;;;;;;287.23;273.20;;;15.20;91.00;;;;;;5051631;28;20652;-69
2023/06/06 12:20:28;;;;;;;301.57;287.20;;;15.20;91.10;;;;;;5048721;28;20309;-67
2023/06/06 12:29:54;;;;;;;221.83;210.80;;;15.30;91.00;;;;;;5052315;28;20288;-77
2023/06/06 12:32:26;;;;;;;228.27;216.27;;;15.30;91.00;;;;;;5043126;28;20636;-74
2023/06/06 12:35:05;;;;;;;225.83;214.23;;;15.30;91.00;;;;;;5047522;28;20275;-74
2023/06/06 12:37:46;;;;;;;248.53;236.10;;;15.40;91.00;;;;;;5053787;28;20176;-77
2023/06/06 12:40:22;;;;;;;259.37;246.53;;;15.40;91.00;;;;;;5049980;28;20605;-72
2023/06/06 12:42:57;;;;;;;263.37;250.33;;;15.40;91.00;;;;;;5043979;28;20196;-72
2023/06/06 12:45:26;;;;;;;269.80;256.67;;;15.50;90.90;;;;;;5045782;28;20739;-73
2023/06/06 12:47:55;;;;;;;292.30;277.87;;;15.40;90.90;;;;;;5037416;28;20301;-75
2023/06/06 12:50:24;;;;;;;289.90;275.70;;;15.50;91.00;;;;;;5038432;28;20191;-75
2023/06/06 12:52:52;;;;;;;296.33;281.73;;;15.50;90.80;;;;;;5043254;28;20188;-68
2023/06/06 12:55:20;;;;;;;301.50;286.70;;;15.50;90.80;;;;;;5040160;28;20244;-72
2023/06/06 12:57:50;;;;;;;296.67;282.27;;;15.50;90.70;;;;;;5053109;28;20277;-74
2023/06/06 13:00:19;;;;;;;300.83;285.40;;;15.50;90.70;;;;;;5043167;28;20326;-75
2023/06/06 13:02:47;;;;;;;301.10;286.00;;;15.60;90.60;;;;;;5043046;28;20234;-72